createdAt,value
2018-11-21T00:01:05.099Z,5.30
2018-11-21T00:03:33.420Z,5.20
2018-11-21T00:06:01.802Z,5.20
2018-11-21T00:08:30.159Z,5.20
2018-11-21T00:10:58.893Z,5.20
2018-11-21T00:13:27.281Z,5.20
2018-11-21T00:15:56.009Z,5.20
2018-11-21T00:18:24.387Z,5.20
2018-11-21T00:20:53.141Z,5.30
2018-11-21T00:23:21.786Z,5.30
2018-11-21T00:25:50.458Z,5.30
2018-11-21T00:28:18.826Z,5.40
2018-11-21T00:30:47.190Z,5.40
2018-11-21T00:33:15.581Z,5.40
2018-11-21T00:35:43.941Z,5.40
2018-11-21T00:38:12.361Z,5.40
2018-11-21T00:40:40.718Z,5.40
2018-11-21T00:43:09.152Z,5.40
2018-11-21T00:45:37.502Z,5.40
2018-11-21T00:48:05.847Z,5.30
2018-11-21T00:50:34.207Z,5.30
2018-11-21T00:53:02.564Z,5.30
2018-11-21T00:55:31.322Z,5.30
2018-11-21T00:57:59.703Z,5.20
2018-11-21T01:00:28.073Z,5.20
2018-11-21T01:02:56.439Z,5.10
2018-11-21T01:05:24.874Z,5.10
2018-11-21T01:07:53.266Z,5.10
2018-11-21T01:10:21.591Z,5.10
2018-11-21T01:12:50.275Z,5.00
2018-11-21T01:15:18.610Z,5.00
2018-11-21T01:17:46.981Z,5.00
2018-11-21T01:20:15.330Z,5.10
2018-11-21T01:22:43.791Z,5.10
2018-11-21T01:25:12.164Z,5.00
2018-11-21T01:27:40.518Z,5.00
2018-11-21T01:30:09.430Z,4.90
2018-11-21T01:32:38.105Z,4.80
2018-11-21T01:35:07.006Z,4.70
2018-11-21T01:37:35.454Z,4.60
2018-11-21T01:40:04.059Z,4.40
2018-11-21T01:42:32.440Z,4.40
2018-11-21T01:45:01.187Z,4.30
2018-11-21T01:47:29.871Z,4.20
2018-11-21T01:49:58.592Z,4.10
2018-11-21T01:52:27.275Z,3.90
2018-11-21T01:54:56.407Z,3.90
2018-11-21T01:57:24.768Z,3.80
2018-11-21T01:59:53.495Z,3.70
2018-11-21T02:02:21.892Z,3.70
2018-11-21T02:04:50.250Z,3.70
2018-11-21T02:07:18.629Z,3.60
2018-11-21T02:09:46.970Z,3.60
2018-11-21T02:12:15.352Z,3.50
2018-11-21T02:14:43.826Z,3.50
2018-11-21T02:17:12.180Z,3.50
2018-11-21T02:19:40.559Z,3.50
2018-11-21T02:22:09.143Z,3.40
2018-11-21T02:24:37.506Z,3.30
2018-11-21T02:27:06.213Z,3.30
2018-11-21T02:29:34.568Z,3.20
2018-11-21T02:32:03.024Z,3.20
2018-11-21T02:34:31.384Z,3.20
2018-11-21T02:36:59.762Z,3.10
2018-11-21T02:39:28.110Z,3.10
2018-11-21T02:41:56.481Z,3.00
2018-11-21T02:44:24.867Z,3.00
2018-11-21T02:46:53.227Z,3.00
2018-11-21T02:49:21.602Z,3.00
2018-11-21T02:51:50.378Z,2.90
2018-11-21T02:54:18.811Z,2.80
2018-11-21T02:57:19.046Z,2.80
2018-11-21T02:59:47.958Z,2.80
2018-11-21T03:02:16.328Z,2.80
2018-11-21T03:04:44.684Z,2.80
2018-11-21T03:07:13.131Z,2.70
2018-11-21T03:09:41.791Z,2.70
2018-11-21T03:12:10.420Z,2.70
2018-11-21T03:14:39.161Z,2.70
2018-11-21T03:17:07.534Z,2.70
2018-11-21T03:19:35.993Z,2.60
2018-11-21T03:22:04.363Z,2.60
2018-11-21T03:24:32.735Z,2.60
2018-11-21T03:27:01.370Z,2.50
2018-11-21T03:29:29.748Z,2.50
2018-11-21T03:31:58.159Z,2.50
2018-11-21T03:34:26.604Z,2.40
2018-11-21T03:36:55.591Z,2.40
2018-11-21T03:39:25.103Z,2.40
2018-11-21T03:41:53.473Z,2.30
2018-11-21T03:44:21.834Z,2.30
2018-11-21T03:46:50.263Z,2.30
2018-11-21T03:49:18.718Z,2.20
2018-11-21T03:51:47.072Z,2.20
2018-11-21T03:54:15.440Z,2.20
2018-11-21T03:56:44.120Z,2.10
2018-11-21T03:59:12.522Z,2.20
2018-11-21T04:01:41.219Z,2.20
2018-11-21T04:04:09.904Z,2.20
2018-11-21T04:06:38.623Z,2.20
2018-11-21T04:09:11.771Z,2.20
2018-11-21T04:11:40.625Z,2.20
2018-11-21T04:14:09.455Z,2.20
2018-11-21T04:16:37.800Z,2.20
2018-11-21T04:19:06.201Z,2.20
2018-11-21T04:21:34.567Z,2.20
2018-11-21T04:24:02.940Z,2.40
2018-11-21T04:26:31.304Z,2.50
2018-11-21T04:28:59.972Z,2.60
2018-11-21T04:31:28.326Z,2.70
2018-11-21T04:33:56.671Z,2.80
2018-11-21T04:36:25.342Z,2.80
2018-11-21T04:38:53.716Z,3.00
2018-11-21T04:41:22.393Z,3.00
2018-11-21T04:43:50.748Z,3.00
2018-11-21T04:46:19.179Z,3.10
2018-11-21T04:48:48.313Z,3.00
2018-11-21T04:51:17.014Z,3.10
2018-11-21T04:53:45.359Z,3.10
2018-11-21T04:56:14.155Z,3.20
2018-11-21T04:58:42.581Z,3.20
2018-11-21T05:01:10.953Z,3.30
2018-11-21T05:03:39.613Z,3.30
2018-11-21T05:06:07.989Z,3.30
2018-11-21T05:08:36.350Z,3.40
2018-11-21T05:11:04.717Z,3.40
2018-11-21T05:13:33.468Z,3.40
2018-11-21T05:16:01.838Z,3.30
2018-11-21T05:18:30.393Z,3.20
2018-11-21T05:20:59.104Z,3.10
2018-11-21T05:23:27.902Z,3.00
2018-11-21T05:25:56.281Z,2.90
2018-11-21T05:28:25.195Z,2.80
2018-11-21T05:30:53.854Z,2.70
2018-11-21T05:33:22.841Z,2.60
2018-11-21T05:35:51.251Z,2.50
2018-11-21T05:38:19.621Z,2.40
2018-11-21T05:40:47.987Z,2.40
2018-11-21T05:43:16.794Z,2.30
2018-11-21T05:45:45.486Z,2.30
2018-11-21T05:48:13.869Z,2.30
2018-11-21T05:50:42.225Z,2.20
2018-11-21T05:53:10.945Z,2.20
2018-11-21T05:55:39.711Z,2.20
2018-11-21T05:58:08.427Z,2.20
2018-11-21T06:00:37.132Z,2.10
2018-11-21T06:03:05.659Z,2.10
2018-11-21T06:05:34.042Z,2.10
2018-11-21T06:08:02.423Z,2.10
2018-11-21T06:10:31.175Z,2.10
2018-11-21T06:12:59.550Z,2.10
2018-11-21T06:15:27.933Z,2.00
2018-11-21T06:17:56.321Z,2.00
2018-11-21T06:20:24.827Z,2.00
2018-11-21T06:22:53.278Z,2.00
2018-11-21T06:25:22.077Z,2.00
2018-11-21T06:27:50.594Z,1.90
2018-11-21T06:30:18.970Z,1.90
2018-11-21T06:32:47.355Z,2.00
2018-11-21T06:35:15.759Z,2.00
2018-11-21T06:37:44.499Z,2.00
2018-11-21T06:40:14.463Z,2.00
2018-11-21T06:43:02.104Z,2.00
2018-11-21T06:45:30.545Z,2.00
2018-11-21T06:47:58.920Z,2.00
2018-11-21T06:50:27.302Z,2.00
2018-11-21T06:55:25.455Z,2.00
2018-11-21T06:57:53.843Z,2.00
2018-11-21T07:00:22.570Z,2.00
2018-11-21T07:02:50.957Z,2.00
2018-11-21T07:05:19.406Z,2.00
2018-11-21T07:07:47.836Z,2.00
2018-11-21T07:10:16.993Z,2.00
2018-11-21T07:12:45.987Z,2.00
2018-11-21T07:15:14.378Z,2.00
2018-11-21T07:17:42.732Z,2.00
2018-11-21T07:20:12.919Z,2.00
2018-11-21T07:22:41.649Z,2.00
2018-11-21T07:25:16.070Z,2.00
2018-11-21T07:27:44.655Z,2.00
2018-11-21T07:30:14.454Z,2.00
2018-11-21T07:32:42.866Z,2.00
2018-11-21T07:35:17.539Z,2.00
2018-11-21T07:37:40.872Z,2.00
2018-11-21T07:40:11.031Z,2.10
2018-11-21T07:42:39.448Z,2.10
2018-11-21T07:45:12.909Z,2.20
2018-11-21T07:47:41.809Z,2.20
2018-11-21T07:50:13.035Z,2.20
2018-11-21T07:52:41.732Z,2.10
2018-11-21T07:55:11.426Z,2.20
2018-11-21T07:57:41.247Z,2.20
2018-11-21T08:01:13.468Z,2.30
2018-11-21T08:03:46.721Z,2.30
2018-11-21T08:06:39.983Z,2.40
2018-11-21T08:09:27.924Z,2.40
2018-11-21T08:12:15.452Z,2.50
2018-11-21T08:15:19.075Z,2.50
2018-11-21T08:18:10.065Z,2.50
2018-11-21T08:21:16.163Z,2.60
2018-11-21T08:23:57.171Z,2.70
2018-11-21T08:26:50.509Z,2.70
2018-11-21T08:29:18.982Z,2.80
2018-11-21T08:31:48.008Z,2.90
2018-11-21T08:34:16.424Z,3.00
2018-11-21T08:36:45.187Z,3.10
2018-11-21T08:39:13.566Z,3.10
2018-11-21T08:41:41.943Z,3.20
2018-11-21T08:44:10.287Z,3.20
2018-11-21T08:46:38.690Z,3.30
2018-11-21T08:49:07.081Z,3.30
2018-11-21T08:51:35.460Z,3.30
2018-11-21T08:54:03.816Z,3.40
2018-11-21T08:56:32.536Z,3.40
2018-11-21T08:59:00.558Z,3.50
2018-11-21T09:01:29.279Z,3.50
2018-11-21T09:03:57.675Z,3.60
2018-11-21T09:06:26.333Z,3.70
2018-11-21T09:08:54.774Z,3.70
2018-11-21T09:11:23.135Z,3.80
2018-11-21T09:13:53.250Z,3.90
2018-11-21T09:16:19.874Z,4.00
2018-11-21T09:18:48.276Z,4.00
2018-11-21T09:21:16.631Z,4.10
2018-11-21T09:23:45.062Z,4.10
2018-11-21T09:26:13.393Z,4.20
2018-11-21T09:28:42.120Z,4.20
2018-11-21T09:31:10.467Z,4.20
2018-11-21T09:33:38.826Z,4.30
2018-11-21T09:36:07.527Z,4.30
2018-11-21T09:38:36.606Z,4.40
2018-11-21T09:41:05.269Z,4.40
2018-11-21T09:43:33.606Z,4.50
2018-11-21T09:46:02.759Z,4.60
2018-11-21T09:48:31.120Z,4.70
2018-11-21T09:50:59.844Z,4.80
2018-11-21T09:53:28.542Z,4.90
2018-11-21T09:55:56.889Z,5.10
2018-11-21T09:58:25.257Z,5.20
2018-11-21T10:01:30.252Z,5.30
2018-11-21T10:04:01.010Z,5.40
2018-11-21T10:06:29.979Z,5.90
2018-11-21T10:09:00.203Z,6.30
2018-11-21T10:11:29.288Z,6.60
2018-11-21T10:13:57.694Z,6.90
2018-11-21T10:16:26.073Z,7.30
2018-11-21T10:18:55.851Z,7.70
2018-11-21T10:21:25.862Z,8.10
2018-11-21T10:23:54.609Z,8.80
2018-11-21T10:26:23.345Z,9.90
2018-11-21T10:28:52.446Z,10.90
2018-11-21T10:31:20.820Z,11.90
2018-11-21T10:33:49.241Z,12.50
2018-11-21T10:36:18.236Z,13.40
2018-11-21T10:38:47.010Z,14.40
2018-11-21T10:41:15.394Z,15.20
2018-11-21T10:43:44.236Z,15.10
2018-11-21T10:46:13.456Z,15.40
2018-11-21T10:48:42.417Z,16.00
2018-11-21T10:51:10.778Z,17.00
2018-11-21T10:53:40.604Z,18.10
2018-11-21T10:56:08.995Z,18.90
2018-11-21T10:58:37.361Z,19.10
2018-11-21T11:01:27.876Z,19.40
2018-11-21T11:04:09.421Z,19.80
2018-11-21T11:07:09.326Z,19.80
2018-11-21T11:09:56.893Z,20.20
2018-11-21T11:12:47.460Z,20.00
2018-11-21T11:15:28.793Z,20.50
2018-11-21T11:18:09.229Z,20.50
2018-11-21T11:21:11.849Z,21.00
2018-11-21T11:23:53.188Z,21.30
2018-11-21T11:26:39.320Z,21.50
2018-11-21T11:29:30.130Z,21.30
2018-11-21T11:32:16.300Z,21.10
2018-11-21T11:35:03.850Z,21.10
2018-11-21T11:37:50.028Z,21.60
2018-11-21T11:40:46.307Z,21.80
2018-11-21T11:43:48.907Z,21.90
2018-11-21T11:46:38.954Z,21.90
2018-11-21T11:49:25.270Z,22.50
2018-11-21T11:52:11.786Z,22.70
2018-11-21T11:55:11.270Z,22.90
2018-11-21T11:58:07.927Z,22.10
2018-11-21T12:01:11.155Z,21.80
2018-11-21T12:03:58.763Z,21.40
2018-11-21T12:06:46.292Z,21.40
2018-11-21T12:09:42.620Z,21.30
2018-11-21T12:12:19.261Z,21.60
2018-11-21T12:15:21.947Z,21.70
2018-11-21T12:18:15.769Z,21.50
2018-11-21T12:21:01.912Z,21.20
2018-11-21T12:23:55.378Z,21.10
2018-11-21T12:26:36.437Z,21.50
2018-11-21T12:29:33.128Z,21.30
2018-11-21T12:32:20.644Z,20.60
2018-11-21T12:35:08.604Z,20.50
2018-11-21T12:38:02.065Z,19.80
2018-11-21T12:40:48.112Z,19.30
2018-11-21T12:43:41.607Z,19.20
2018-11-21T12:46:40.854Z,18.90
2018-11-21T12:49:37.353Z,19.00
